Time;durP1;ratioP1;P1;durP2;ratioP2;P2;SDS_P1;SDS_P2;PMS_P1;PMS_P2;Temp;Humidity;BMP_temperature;BMP_pressure;BME280_temperature;BME280_humidity;BME280_pressure;Samples;Min_cycle;Max_cycle;Signal;HPM_P1;HPM_P2
2022/09/01 00:00:13;;;;;;;5.03;3.00;;;22.50;83.10;;;;;;5103939;28;20225;-37
2022/09/01 00:02:41;;;;;;;5.18;3.22;;;22.50;83.10;;;;;;5098381;28;20202;-37
2022/09/01 00:05:09;;;;;;;6.88;2.92;;;22.50;83.10;;;;;;5121297;27;20626;-38
2022/09/01 00:07:37;;;;;;;7.90;3.90;;;22.40;83.00;;;;;;5107028;28;20293;-37
2022/09/01 00:10:07;;;;;;;4.00;3.17;;;22.40;83.00;;;;;;5111579;27;20194;-38
2022/09/01 00:12:34;;;;;;;7.35;2.90;;;22.40;82.90;;;;;;5098645;27;20262;-37
2022/09/01 00:15:06;;;;;;;5.90;3.13;;;22.40;83.00;;;;;;5118914;27;20216;-38
2022/09/01 00:17:36;;;;;;;9.63;3.05;;;22.30;82.90;;;;;;5098631;27;20213;-38
2022/09/01 00:20:04;;;;;;;5.88;3.17;;;22.30;82.80;;;;;;5124509;27;20193;-38
2022/09/01 00:22:34;;;;;;;6.85;3.10;;;22.30;82.80;;;;;;5104600;27;20206;-43
2022/09/01 00:25:05;;;;;;;6.05;3.13;;;22.30;82.80;;;;;;5095466;27;20247;-43
2022/09/01 00:27:35;;;;;;;5.13;3.10;;;22.20;82.60;;;;;;5111893;27;20190;-44
2022/09/01 00:33:07;;;;;;;7.95;3.10;;;22.20;82.60;;;;;;5129276;27;20216;-43
2022/09/01 00:35:37;;;;;;;6.10;3.03;;;22.20;82.60;;;;;;5124197;27;20691;-44
2022/09/01 00:38:08;;;;;;;7.07;3.05;;;22.20;82.60;;;;;;5115371;27;20791;-44
2022/09/01 00:40:36;;;;;;;4.47;3.05;;;22.10;82.50;;;;;;5111860;27;20209;-44
2022/09/01 00:43:17;;;;;;;5.75;3.40;;;22.10;82.50;;;;;;5112965;27;20210;-44
2022/09/01 00:45:45;;;;;;;7.63;3.78;;;22.10;82.50;;;;;;5102539;27;20581;-43
2022/09/01 00:48:13;;;;;;;9.82;3.55;;;22.10;82.60;;;;;;5113155;27;20317;-44
2022/09/01 00:50:46;;;;;;;5.20;3.40;;;22.00;82.40;;;;;;5103474;28;20245;-44
2022/09/01 00:53:22;;;;;;;7.90;3.53;;;22.00;82.30;;;;;;5115922;27;20314;-43
2022/09/01 00:55:50;;;;;;;6.00;3.50;;;22.00;82.30;;;;;;5119668;27;20615;-43
2022/09/01 00:58:22;;;;;;;5.85;3.80;;;21.90;82.30;;;;;;5113301;27;20237;-44
2022/09/01 01:00:52;;;;;;;6.28;3.92;;;21.90;82.20;;;;;;5114195;27;20671;-43
2022/09/01 01:03:19;;;;;;;7.95;4.05;;;21.90;82.20;;;;;;5100822;28;20191;-44
2022/09/01 01:05:56;;;;;;;7.22;4.32;;;21.80;82.20;;;;;;5092710;28;20218;-43
2022/09/01 01:08:35;;;;;;;6.50;4.50;;;21.70;82.30;;;;;;5096501;28;20251;-43
2022/09/01 01:11:10;;;;;;;11.95;4.47;;;21.70;82.40;;;;;;5118676;27;20237;-43
2022/09/01 01:13:53;;;;;;;7.78;4.82;;;21.70;82.50;;;;;;5121180;27;20215;-43
2022/09/01 01:16:27;;;;;;;9.50;4.72;;;21.60;82.70;;;;;;5112642;27;20213;-43
2022/09/01 01:19:01;;;;;;;7.50;5.10;;;21.60;82.10;;;;;;5109800;27;20271;-43
2022/09/01 01:24:31;;;;;;;9.23;5.03;;;21.60;82.20;;;;;;5116850;27;20252;-43
2022/09/01 01:27:02;;;;;;;9.98;5.63;;;21.50;82.10;;;;;;5123349;27;20206;-43
2022/09/01 01:29:38;;;;;;;9.93;4.95;;;21.50;81.90;;;;;;5113040;27;20206;-43
2022/09/01 01:32:11;;;;;;;12.93;5.75;;;21.40;81.90;;;;;;5121577;27;20205;-42
2022/09/01 01:34:42;;;;;;;11.07;5.38;;;21.40;81.90;;;;;;5116584;27;20205;-43
2022/09/01 01:37:09;;;;;;;10.57;5.63;;;21.30;81.80;;;;;;5118941;27;20581;-43
2022/09/01 01:39:41;;;;;;;8.55;5.35;;;21.30;82.10;;;;;;5108558;28;20234;-42
2022/09/01 01:42:09;;;;;;;9.50;5.13;;;21.30;82.10;;;;;;5121125;27;20197;-42
2022/09/01 01:44:39;;;;;;;11.55;5.68;;;21.20;82.00;;;;;;5120925;27;20210;-43
2022/09/01 01:47:11;;;;;;;13.35;5.65;;;21.20;81.90;;;;;;5123507;27;20324;-42
2022/09/01 01:49:42;;;;;;;9.18;4.85;;;21.20;81.90;;;;;;5109921;27;20609;-44
2022/09/01 01:52:16;;;;;;;10.57;5.70;;;21.20;81.90;;;;;;5089746;28;20206;-45
2022/09/01 01:54:46;;;;;;;11.68;5.93;;;21.20;81.80;;;;;;5108482;27;20312;-37
2022/09/01 01:57:18;;;;;;;11.10;5.68;;;21.10;81.80;;;;;;5117675;27;20253;-38
2022/09/01 01:59:48;;;;;;;8.43;5.57;;;21.10;81.80;;;;;;5114671;27;20233;-38
2022/09/01 02:02:19;;;;;;;9.80;6.30;;;21.10;81.90;;;;;;5116774;27;20205;-38
2022/09/01 02:04:49;;;;;;;11.10;6.22;;;21.10;81.80;;;;;;5114084;27;20654;-38
2022/09/01 02:07:18;;;;;;;9.70;5.40;;;21.00;81.80;;;;;;5120655;27;20727;-38
2022/09/01 02:09:47;;;;;;;11.65;6.10;;;21.00;81.90;;;;;;5126861;27;20221;-38
2022/09/01 02:12:17;;;;;;;9.95;5.55;;;21.00;82.60;;;;;;5122504;27;20641;-38
2022/09/01 02:14:47;;;;;;;13.20;5.70;;;20.90;81.60;;;;;;5118991;27;20218;-38
2022/09/01 02:17:14;;;;;;;9.45;6.15;;;20.90;81.80;;;;;;5121484;27;20203;-38
2022/09/01 02:19:46;;;;;;;9.43;5.95;;;20.90;81.90;;;;;;5118607;27;20380;-38
2022/09/01 02:22:13;;;;;;;11.73;6.28;;;20.80;81.70;;;;;;5091652;27;20210;-38
2022/09/01 02:24:48;;;;;;;8.77;6.22;;;20.80;81.80;;;;;;5127565;27;20262;-38
2022/09/01 02:27:24;;;;;;;11.30;6.53;;;20.80;81.90;;;;;;5126205;27;20202;-38
2022/09/01 02:29:54;;;;;;;9.45;6.47;;;20.80;82.00;;;;;;5125711;27;20201;-43
2022/09/01 02:32:23;;;;;;;11.95;6.82;;;20.80;81.70;;;;;;5104207;27;20200;-42
2022/09/01 02:34:52;;;;;;;12.23;6.93;;;20.70;81.60;;;;;;5123510;27;20198;-43
2022/09/01 02:37:24;;;;;;;11.68;7.10;;;20.70;81.60;;;;;;5116208;27;20198;-44
2022/09/01 02:39:52;;;;;;;11.77;7.38;;;20.70;81.60;;;;;;5108730;27;20236;-43
2022/09/01 02:42:25;;;;;;;11.23;6.78;;;20.70;81.60;;;;;;5123222;27;20603;-44
2022/09/01 02:44:54;;;;;;;10.50;6.55;;;20.70;81.60;;;;;;5108786;27;20572;-43
2022/09/01 02:47:25;;;;;;;11.15;7.43;;;20.70;81.70;;;;;;5122172;27;20210;-43
2022/09/01 02:49:56;;;;;;;16.48;7.18;;;20.70;81.80;;;;;;5125910;27;20197;-43
2022/09/01 02:52:23;;;;;;;10.25;6.65;;;20.60;81.60;;;;;;5091383;27;20267;-43
2022/09/01 02:54:51;;;;;;;10.57;6.68;;;20.70;81.70;;;;;;5125631;27;20197;-43
2022/09/01 02:57:18;;;;;;;12.00;7.15;;;20.60;81.60;;;;;;5123352;27;20220;-44
2022/09/01 02:59:47;;;;;;;10.43;6.70;;;20.60;81.70;;;;;;5125972;27;20233;-43
2022/09/01 03:02:14;;;;;;;10.55;7.30;;;20.60;81.60;;;;;;5119167;27;20198;-44
2022/09/01 03:04:54;;;;;;;13.27;7.40;;;20.60;81.70;;;;;;5125541;27;20225;-44
2022/09/01 03:07:26;;;;;;;14.55;6.50;;;20.60;81.70;;;;;;5124039;27;20202;-38
2022/09/01 03:09:56;;;;;;;13.70;7.32;;;20.60;81.80;;;;;;5101043;27;20348;-38
2022/09/01 03:12:27;;;;;;;11.77;6.63;;;20.50;81.60;;;;;;5109872;27;20208;-38
2022/09/01 03:14:54;;;;;;;12.30;7.43;;;20.50;81.60;;;;;;5116803;27;20324;-38
2022/09/01 03:17:22;;;;;;;13.32;7.47;;;20.50;81.80;;;;;;5108532;27;20623;-37
2022/09/01 03:19:53;;;;;;;17.02;8.18;;;20.40;81.60;;;;;;5124782;27;20235;-38
2022/09/01 03:22:21;;;;;;;12.15;6.63;;;20.40;81.50;;;;;;5119684;27;20750;-38
2022/09/01 03:24:50;;;;;;;11.38;6.50;;;20.40;81.60;;;;;;5105808;27;20229;-38
2022/09/01 03:27:18;;;;;;;12.90;6.30;;;20.40;81.60;;;;;;5119872;27;20202;-38
2022/09/01 03:29:52;;;;;;;13.52;6.70;;;20.40;81.60;;;;;;5121116;27;20233;-38
2022/09/01 03:32:21;;;;;;;10.90;6.40;;;20.40;81.60;;;;;;5121383;27;20220;-38
2022/09/01 03:34:51;;;;;;;10.73;6.93;;;20.30;81.50;;;;;;5124819;27;20201;-37
2022/09/01 03:37:19;;;;;;;14.07;6.90;;;20.30;81.70;;;;;;5115556;27;20728;-37
2022/09/01 03:39:49;;;;;;;11.15;6.32;;;20.30;81.70;;;;;;5107183;28;20594;-37
2022/09/01 03:42:21;;;;;;;11.13;6.78;;;20.30;82.40;;;;;;5119228;28;20224;-37
2022/09/01 03:44:55;;;;;;;11.25;6.00;;;20.30;81.70;;;;;;5112433;28;20651;-37
2022/09/01 03:47:23;;;;;;;10.80;6.57;;;20.20;81.70;;;;;;5098018;28;20204;-37
2022/09/01 03:49:55;;;;;;;12.88;6.68;;;20.20;81.70;;;;;;5118472;28;20310;-37
2022/09/01 03:52:28;;;;;;;13.65;6.43;;;20.20;81.80;;;;;;5098851;28;20458;-37
2022/09/01 03:54:58;;;;;;;8.68;5.43;;;20.10;81.70;;;;;;5099864;28;20202;-37
2022/09/01 03:57:28;;;;;;;10.27;6.30;;;20.10;82.40;;;;;;5115377;28;20202;-37
2022/09/01 03:59:59;;;;;;;10.60;6.13;;;20.10;81.80;;;;;;5113165;28;20703;-37
2022/09/01 04:02:28;;;;;;;11.02;5.93;;;20.10;81.80;;;;;;5117018;28;20213;-37
2022/09/01 04:04:57;;;;;;;9.43;6.00;;;20.10;81.80;;;;;;5122461;27;20205;-37
2022/09/01 04:07:26;;;;;;;11.38;6.55;;;20.00;81.80;;;;;;5113171;28;20228;-37
2022/09/01 04:09:53;;;;;;;11.02;6.13;;;20.00;81.80;;;;;;5125080;28;20213;-37
2022/09/01 04:12:23;;;;;;;12.43;6.28;;;20.00;81.90;;;;;;5120356;28;20289;-37
2022/09/01 04:14:50;;;;;;;9.10;6.05;;;19.90;81.80;;;;;;5105737;28;20595;-37
2022/09/01 04:20:08;;;;;;;11.48;6.18;;;19.90;81.90;;;;;;5115377;28;20232;-39
2022/09/01 04:22:36;;;;;;;14.60;6.18;;;19.80;81.80;;;;;;5109970;28;20193;-38
2022/09/01 04:25:07;;;;;;;11.32;6.32;;;19.80;81.80;;;;;;5115160;28;20557;-44
2022/09/01 04:27:37;;;;;;;8.75;5.78;;;19.80;81.90;;;;;;5087164;28;20210;-42
2022/09/01 04:30:09;;;;;;;12.43;6.50;;;19.80;81.90;;;;;;5106617;28;20236;-43
2022/09/01 04:32:37;;;;;;;11.90;6.50;;;19.70;82.00;;;;;;5106183;28;20562;-38
2022/09/01 04:35:10;;;;;;;14.35;6.28;;;19.70;81.90;;;;;;5105368;28;20293;-38
2022/09/01 04:37:40;;;;;;;9.27;5.80;;;19.70;82.60;;;;;;5088327;28;20693;-37
2022/09/01 04:40:10;;;;;;;11.15;6.40;;;19.70;82.10;;;;;;5104429;28;20226;-37
2022/09/01 04:42:38;;;;;;;13.52;6.63;;;19.60;81.90;;;;;;5126245;28;20290;-38
2022/09/01 04:45:09;;;;;;;10.18;5.20;;;19.60;82.00;;;;;;5112608;28;20579;-38
2022/09/01 04:47:44;;;;;;;12.50;5.85;;;19.60;82.40;;;;;;5118101;28;20191;-38
2022/09/01 04:50:16;;;;;;;10.38;5.47;;;19.50;82.00;;;;;;5123127;28;20212;-38
2022/09/01 04:52:49;;;;;;;9.82;5.18;;;19.50;82.00;;;;;;5113817;27;20194;-42
2022/09/01 04:55:17;;;;;;;8.18;4.90;;;19.50;81.90;;;;;;5087086;27;20229;-42
2022/09/01 04:57:48;;;;;;;8.57;5.10;;;19.50;82.10;;;;;;5125207;27;20254;-43
2022/09/01 05:00:23;;;;;;;13.35;4.78;;;19.50;82.30;;;;;;5112925;27;20303;-42
2022/09/01 05:03:01;;;;;;;9.00;5.07;;;19.50;82.10;;;;;;5096533;28;20223;-41
2022/09/01 05:05:44;;;;;;;5.95;4.45;;;19.50;82.40;;;;;;5116071;27;20222;-44
2022/09/01 05:08:22;;;;;;;7.93;4.47;;;19.40;82.50;;;;;;5118549;27;20210;-44
2022/09/01 05:10:55;;;;;;;5.97;4.43;;;19.40;82.20;;;;;;5118485;27;21038;-44
2022/09/01 05:13:26;;;;;;;12.25;4.57;;;19.40;82.40;;;;;;5118090;27;20438;-45
2022/09/01 05:16:05;;;;;;;13.70;4.95;;;19.40;82.40;;;;;;5114692;27;20210;-44
2022/09/01 05:18:32;;;;;;;7.18;4.30;;;19.40;82.70;;;;;;5095336;28;20214;-44
2022/09/01 05:21:13;;;;;;;6.35;4.03;;;19.40;82.50;;;;;;5111818;27;20217;-39
2022/09/01 05:23:45;;;;;;;11.15;4.93;;;19.40;82.80;;;;;;5105722;27;20641;-39
2022/09/01 05:26:20;;;;;;;6.70;4.78;;;19.40;82.70;;;;;;5097955;27;20675;-39
2022/09/01 05:28:52;;;;;;;10.38;5.32;;;19.40;82.60;;;;;;5116415;27;20235;-39
2022/09/01 05:31:21;;;;;;;11.00;5.85;;;19.40;82.50;;;;;;5117323;27;20209;-39
2022/09/01 05:33:51;;;;;;;8.75;5.50;;;19.40;82.80;;;;;;5121606;27;20711;-39
2022/09/01 05:36:21;;;;;;;13.25;5.50;;;19.40;82.80;;;;;;5114259;27;20202;-38
2022/09/01 05:38:51;;;;;;;8.25;5.50;;;19.40;82.80;;;;;;5082907;27;20556;-37
2022/09/01 05:41:19;;;;;;;9.68;5.50;;;19.40;83.00;;;;;;5116163;27;20194;-45
2022/09/01 05:43:50;;;;;;;10.57;5.15;;;19.40;82.80;;;;;;5097559;27;20197;-43
2022/09/01 05:46:26;;;;;;;17.20;5.65;;;19.40;83.00;;;;;;5100351;27;20237;-43
2022/09/01 05:48:58;;;;;;;11.65;4.85;;;19.40;82.90;;;;;;5123380;27;20205;-43
2022/09/01 05:51:28;;;;;;;8.50;4.50;;;19.40;83.00;;;;;;5123168;27;20208;-43
2022/09/01 05:54:26;;;;;;;7.25;4.13;;;19.40;83.00;;;;;;5109535;27;21014;-44
2022/09/01 05:56:57;;;;;;;9.18;3.80;;;19.40;83.20;;;;;;5109309;27;20224;-43
2022/09/01 05:59:44;;;;;;;6.88;3.60;;;19.40;83.60;;;;;;5116372;27;20293;-46
2022/09/01 06:02:12;;;;;;;8.77;3.38;;;19.40;83.20;;;;;;5115679;27;20594;-39
2022/09/01 06:04:42;;;;;;;6.93;3.40;;;19.40;83.30;;;;;;5126169;27;20204;-39
2022/09/01 06:07:18;;;;;;;6.97;3.28;;;19.40;83.30;;;;;;5126036;27;20221;-38
2022/09/01 06:09:53;;;;;;;7.00;3.50;;;19.40;83.40;;;;;;5126538;27;20305;-44
2022/09/01 06:12:23;;;;;;;10.38;3.45;;;19.50;83.50;;;;;;5114907;27;20242;-44
2022/09/01 06:14:55;;;;;;;7.32;2.97;;;19.50;83.70;;;;;;5119624;27;20209;-44
2022/09/01 06:17:28;;;;;;;6.57;3.28;;;19.50;83.60;;;;;;5117483;27;20685;-44
2022/09/01 06:19:56;;;;;;;10.10;3.97;;;19.50;83.60;;;;;;5090800;27;20225;-45
2022/09/01 06:22:28;;;;;;;10.30;3.47;;;19.50;83.70;;;;;;5126189;27;20214;-43
2022/09/01 06:24:58;;;;;;;7.85;3.65;;;19.50;83.70;;;;;;5113628;27;20193;-44
2022/09/01 06:27:29;;;;;;;7.57;3.42;;;19.50;83.70;;;;;;5115473;27;20571;-44
2022/09/01 06:29:56;;;;;;;7.28;3.28;;;19.60;83.90;;;;;;5126188;27;20636;-44
2022/09/01 06:32:25;;;;;;;5.88;3.08;;;19.60;84.00;;;;;;5120396;27;20666;-43
2022/09/01 06:34:55;;;;;;;4.38;2.90;;;19.60;84.20;;;;;;5093754;28;20202;-43
2022/09/01 06:37:25;;;;;;;12.65;3.60;;;19.60;84.00;;;;;;5111033;27;20205;-38
2022/09/01 06:39:52;;;;;;;6.80;3.28;;;19.70;84.10;;;;;;5108294;27;20619;-38
2022/09/01 06:42:21;;;;;;;8.82;3.47;;;19.70;84.20;;;;;;5126502;27;20199;-38
2022/09/01 06:44:49;;;;;;;6.57;3.42;;;19.70;84.20;;;;;;5121757;27;20656;-37
2022/09/01 06:47:16;;;;;;;6.57;3.50;;;19.80;84.50;;;;;;5120972;27;20255;-37
2022/09/01 06:49:48;;;;;;;9.93;3.50;;;19.80;84.60;;;;;;5129099;27;20208;-37
2022/09/01 06:52:26;;;;;;;6.72;3.10;;;19.80;84.40;;;;;;5115293;27;20212;-38
2022/09/01 06:54:54;;;;;;;6.65;3.33;;;19.80;84.70;;;;;;5112543;27;20198;-45
2022/09/01 06:57:26;;;;;;;8.60;3.38;;;19.90;84.60;;;;;;5098747;27;20240;-39
2022/09/01 07:00:19;;;;;;;7.57;3.08;;;19.90;84.70;;;;;;5109550;27;20577;-45
2022/09/01 07:02:53;;;;;;;9.57;3.65;;;20.00;85.00;;;;;;5126087;27;20197;-44
2022/09/01 07:05:25;;;;;;;9.23;3.05;;;20.00;85.50;;;;;;5119219;27;20306;-44
2022/09/01 07:08:20;;;;;;;6.72;3.38;;;20.00;84.90;;;;;;5113158;27;20558;-44
2022/09/01 07:10:50;;;;;;;8.57;3.38;;;20.10;85.20;;;;;;5121467;27;20229;-44
2022/09/01 07:13:40;;;;;;;6.43;3.70;;;20.10;85.20;;;;;;5116221;27;20212;-45
2022/09/01 07:16:33;;;;;;;6.22;3.60;;;20.10;85.40;;;;;;5096916;28;20209;-38
2022/09/01 07:19:20;;;;;;;5.03;3.75;;;20.20;85.50;;;;;;5091936;28;20202;-38
2022/09/01 07:21:48;;;;;;;5.13;3.42;;;20.20;86.40;;;;;;5113944;27;20225;-38
2022/09/01 07:24:39;;;;;;;7.18;2.80;;;20.20;85.70;;;;;;5125351;27;20225;-38
2022/09/01 07:27:08;;;;;;;5.38;3.05;;;20.30;85.80;;;;;;5115397;27;20197;-38
2022/09/01 07:29:38;;;;;;;6.22;3.88;;;20.30;85.80;;;;;;5109311;27;20217;-38
2022/09/01 07:32:10;;;;;;;5.18;3.05;;;20.40;86.00;;;;;;5108625;27;20695;-38
2022/09/01 07:34:57;;;;;;;5.45;2.80;;;20.40;86.30;;;;;;5125568;27;20201;-38
2022/09/01 07:37:26;;;;;;;3.97;2.70;;;20.50;86.20;;;;;;5121247;27;20204;-38
2022/09/01 07:40:17;;;;;;;8.10;3.20;;;20.50;86.20;;;;;;5116222;28;20251;-38
2022/09/01 07:43:08;;;;;;;3.85;2.47;;;20.60;86.60;;;;;;5107732;28;20218;-38
2022/09/01 07:45:47;;;;;;;5.07;2.60;;;20.70;86.40;;;;;;5118571;28;20210;-38
2022/09/01 07:48:27;;;;;;;6.07;3.22;;;20.80;86.80;;;;;;5128099;28;20204;-38
2022/09/01 07:51:21;;;;;;;4.85;2.70;;;20.80;86.60;;;;;;5140480;27;20204;-38
2022/09/01 07:54:04;;;;;;;4.78;2.88;;;20.90;87.00;;;;;;5123592;27;20299;-38
2022/09/01 07:56:34;;;;;;;6.22;3.22;;;21.00;86.90;;;;;;5129279;27;20288;-41
2022/09/01 07:59:08;;;;;;;6.63;2.70;;;21.00;87.10;;;;;;5136847;27;20682;-43
2022/09/01 08:01:41;;;;;;;5.05;2.15;;;21.10;87.00;;;;;;5108496;27;20302;-43
2022/09/01 08:04:11;;;;;;;5.53;2.38;;;21.10;87.00;;;;;;5132230;27;20191;-44
2022/09/01 08:06:41;;;;;;;5.85;2.50;;;21.20;87.10;;;;;;5140585;27;20201;-43
2022/09/01 08:09:09;;;;;;;4.13;2.30;;;21.30;87.20;;;;;;5139179;27;20209;-44
2022/09/01 08:11:51;;;;;;;3.78;2.30;;;21.30;87.10;;;;;;5123401;28;20617;-44
2022/09/01 08:14:27;;;;;;;2.22;2.03;;;21.40;87.30;;;;;;5127669;28;20193;-43
2022/09/01 08:17:00;;;;;;;4.22;2.10;;;21.50;87.40;;;;;;5119204;27;20255;-43
2022/09/01 08:19:50;;;;;;;7.40;3.13;;;21.60;87.40;;;;;;5093585;28;20745;-44
2022/09/01 08:22:22;;;;;;;8.80;3.15;;;21.70;87.60;;;;;;5097288;28;20213;-43
2022/09/01 08:24:52;;;;;;;14.05;3.03;;;21.70;87.60;;;;;;5146524;27;20453;-43
2022/09/01 08:27:20;;;;;;;8.57;2.85;;;21.80;87.60;;;;;;5108287;27;20217;-43
2022/09/01 08:29:47;;;;;;;11.50;3.10;;;21.80;87.50;;;;;;5120591;27;20191;-43
2022/09/01 08:32:21;;;;;;;11.48;2.60;;;21.90;87.60;;;;;;5120243;27;20197;-38
2022/09/01 08:34:48;;;;;;;4.75;2.92;;;21.90;87.70;;;;;;5128663;27;20210;-38
2022/09/01 08:37:16;;;;;;;12.13;2.85;;;21.90;87.80;;;;;;5128878;27;20226;-38
2022/09/01 08:44:44;;;;;;;6.57;2.42;;;22.10;87.90;;;;;;5112928;27;20193;-38
2022/09/01 08:47:16;;;;;;;9.95;3.58;;;22.10;87.90;;;;;;5108928;27;20466;-38
2022/09/01 08:50:02;;;;;;;9.80;2.80;;;22.20;88.70;;;;;;5112734;27;20610;-38
2022/09/01 08:52:36;;;;;;;10.50;3.78;;;22.20;88.00;;;;;;5118028;27;20217;-38
2022/09/01 08:55:27;;;;;;;8.75;2.88;;;22.30;88.20;;;;;;5141697;27;20194;-38
2022/09/01 08:57:59;;;;;;;2.85;2.10;;;22.40;88.30;;;;;;5129066;27;20213;-38
2022/09/01 09:00:31;;;;;;;5.60;2.58;;;22.50;88.40;;;;;;5116289;27;20229;-38
2022/09/01 09:02:59;;;;;;;3.80;1.90;;;22.50;88.50;;;;;;5116810;27;20548;-38
2022/09/01 09:05:30;;;;;;;3.08;2.10;;;22.60;88.50;;;;;;5116965;27;20190;-38
2022/09/01 09:08:15;;;;;;;7.03;2.90;;;22.60;88.50;;;;;;5100483;27;20664;-43
2022/09/01 09:11:29;;;;;;;10.63;2.85;;;22.70;88.60;;;;;;5121805;27;20297;-43
2022/09/01 09:13:59;;;;;;;3.40;2.30;;;22.70;88.50;;;;;;5025034;28;20631;-43
2022/09/01 09:16:42;;;;;;;4.40;1.88;;;22.80;88.70;;;;;;5117204;27;20194;-43
2022/09/01 09:19:42;;;;;;;4.90;2.20;;;22.90;88.80;;;;;;5099883;27;20217;-43
2022/09/01 09:22:15;;;;;;;8.77;2.42;;;22.90;88.50;;;;;;5107937;28;20224;-38
2022/09/01 09:24:51;;;;;;;6.65;2.33;;;23.00;88.10;;;;;;5107999;27;20204;-38
2022/09/01 09:27:26;;;;;;;8.20;2.28;;;23.00;88.40;;;;;;5127503;27;20231;-38
2022/09/01 09:30:02;;;;;;;5.25;1.85;;;23.10;88.50;;;;;;5110363;27;20729;-38
2022/09/01 09:32:55;;;;;;;7.78;2.00;;;23.10;88.40;;;;;;5130076;27;20220;-38
2022/09/01 09:35:47;;;;;;;7.72;1.85;;;23.20;87.20;;;;;;5114170;27;20569;-38
2022/09/01 09:38:17;;;;;;;4.38;1.65;;;23.20;87.40;;;;;;5127935;27;20209;-38
2022/09/01 09:41:15;;;;;;;3.60;2.00;;;23.30;87.70;;;;;;5115853;27;20232;-38
2022/09/01 09:43:54;;;;;;;3.10;1.80;;;23.30;87.60;;;;;;5124255;27;20201;-38
2022/09/01 09:46:31;;;;;;;7.20;1.70;;;23.30;87.10;;;;;;5109099;28;20281;-38
2022/09/01 09:49:23;;;;;;;2.33;1.55;;;23.50;87.40;;;;;;5124127;27;20194;-38
2022/09/01 09:52:09;;;;;;;6.95;1.83;;;23.40;86.40;;;;;;5122687;27;20216;-38
2022/09/01 09:54:39;;;;;;;2.83;1.63;;;23.50;85.30;;;;;;5112842;27;20595;-42
2022/09/01 09:57:15;;;;;;;6.07;1.80;;;23.50;85.30;;;;;;5109309;27;20729;-43
2022/09/01 09:59:52;;;;;;;3.30;1.40;;;23.60;86.00;;;;;;5116787;27;20261;-43
2022/09/01 10:02:35;;;;;;;5.28;1.60;;;23.60;86.20;;;;;;5127685;27;20201;-42
2022/09/01 10:05:23;;;;;;;3.13;1.63;;;23.70;85.40;;;;;;5101722;27;20206;-43
2022/09/01 10:07:54;;;;;;;3.38;1.60;;;23.80;85.10;;;;;;5132290;27;20216;-43
2022/09/01 10:10:27;;;;;;;3.55;1.20;;;23.80;84.80;;;;;;5148631;27;20213;-38
2022/09/01 10:12:58;;;;;;;4.93;1.45;;;23.80;85.80;;;;;;5132633;27;20452;-38
2022/09/01 10:15:34;;;;;;;5.20;1.55;;;23.90;85.60;;;;;;5115352;27;20234;-38
2022/09/01 10:18:14;;;;;;;3.13;1.30;;;23.90;85.60;;;;;;5108502;27;20205;-38
2022/09/01 10:21:07;;;;;;;1.48;1.30;;;24.00;84.80;;;;;;5107214;28;20225;-38
2022/09/01 10:23:40;;;;;;;3.65;1.55;;;24.10;85.60;;;;;;5110818;27;20562;-37
2022/09/01 10:26:14;;;;;;;4.65;1.50;;;24.10;85.00;;;;;;5094680;27;20198;-38
2022/09/01 10:29:19;;;;;;;5.72;1.70;;;24.20;84.60;;;;;;5118703;27;20209;-38
2022/09/01 10:31:46;;;;;;;2.60;1.27;;;24.30;84.50;;;;;;5076471;27;20336;-38
2022/09/01 10:34:18;;;;;;;1.35;1.15;;;24.30;84.30;;;;;;5088052;28;20206;-38
2022/09/01 10:36:47;;;;;;;3.55;1.70;;;24.30;83.20;;;;;;5115988;27;20212;-38
2022/09/01 10:39:22;;;;;;;3.05;1.48;;;24.30;82.80;;;;;;5120850;27;20244;-38
2022/09/01 10:42:06;;;;;;;4.53;2.03;;;24.30;82.90;;;;;;5113854;27;20201;-38
2022/09/01 10:44:56;;;;;;;1.50;1.40;;;24.40;82.20;;;;;;5118709;27;20270;-38
2022/09/01 10:47:36;;;;;;;9.25;1.60;;;24.40;83.60;;;;;;5118748;27;20202;-44
2022/09/01 10:50:31;;;;;;;6.22;2.10;;;24.50;83.60;;;;;;5127260;27;20213;-44
2022/09/01 10:53:06;;;;;;;3.17;1.40;;;24.50;84.00;;;;;;5094130;27;20297;-43
2022/09/01 10:55:42;;;;;;;3.30;1.75;;;24.60;83.30;;;;;;5108586;27;20270;-43
2022/09/01 10:58:15;;;;;;;6.05;1.85;;;24.70;81.80;;;;;;5094951;27;20265;-38
2022/09/01 11:01:02;;;;;;;5.60;1.60;;;24.70;82.30;;;;;;5109290;27;20228;-37
2022/09/01 11:03:49;;;;;;;4.72;1.60;;;24.70;83.00;;;;;;5090498;27;20201;-38
2022/09/01 11:06:43;;;;;;;4.10;1.40;;;24.80;83.30;;;;;;5109049;27;20238;-43
2022/09/01 11:09:40;;;;;;;3.85;1.73;;;24.80;80.70;;;;;;5120416;27;20205;-44
2022/09/01 11:12:16;;;;;;;6.70;1.70;;;24.90;82.00;;;;;;5109341;27;20213;-43
2022/09/01 11:15:03;;;;;;;3.42;1.58;;;24.90;82.50;;;;;;5107330;28;20206;-43
2022/09/01 11:17:36;;;;;;;5.18;1.70;;;24.90;83.50;;;;;;5124954;27;20283;-43
2022/09/01 11:20:43;;;;;;;4.40;1.40;;;25.00;82.80;;;;;;5135018;27;20295;-43
2022/09/01 11:23:24;;;;;;;6.40;1.75;;;25.00;81.90;;;;;;5078091;27;20217;-43
2022/09/01 11:26:21;;;;;;;2.33;1.52;;;25.10;81.70;;;;;;5107002;27;20259;-43
2022/09/01 11:28:50;;;;;;;2.95;1.35;;;25.20;82.80;;;;;;5092214;28;20282;-43
2022/09/01 11:31:23;;;;;;;3.00;1.10;;;25.20;82.90;;;;;;5102852;27;20197;-42
2022/09/01 11:34:19;;;;;;;4.28;1.60;;;25.30;83.60;;;;;;5126251;27;20202;-45
2022/09/01 11:36:51;;;;;;;3.80;1.48;;;25.30;81.40;;;;;;5131853;27;20566;-47
2022/09/01 11:39:25;;;;;;;6.78;1.73;;;25.30;82.80;;;;;;5118383;27;20560;-45
2022/09/01 11:42:00;;;;;;;1.48;1.38;;;25.30;83.30;;;;;;5088683;28;20283;-43
2022/09/01 11:44:50;;;;;;;3.92;1.42;;;25.40;83.80;;;;;;5089019;28;20306;-44
2022/09/01 11:47:27;;;;;;;11.85;2.10;;;25.50;82.60;;;;;;5088782;28;20231;-43
2022/09/01 11:50:01;;;;;;;8.20;1.52;;;25.50;80.60;;;;;;5097033;28;20193;-43
2022/09/01 11:52:33;;;;;;;6.43;1.92;;;25.50;81.40;;;;;;5110609;28;20671;-43
2022/09/01 11:55:04;;;;;;;3.42;1.50;;;25.60;81.10;;;;;;5126778;28;20524;-43
2022/09/01 11:57:35;;;;;;;1.83;1.23;;;25.60;80.80;;;;;;5107677;28;20503;-43
2022/09/01 12:00:09;;;;;;;8.95;2.10;;;25.70;81.80;;;;;;5098149;28;20376;-43
2022/09/01 12:02:46;;;;;;;2.13;1.48;;;25.70;81.50;;;;;;5120631;27;20202;-43
2022/09/01 12:05:25;;;;;;;2.42;1.60;;;25.70;82.50;;;;;;5126048;27;20735;-43
2022/09/01 12:07:56;;;;;;;1.65;1.38;;;25.80;82.50;;;;;;5098811;27;20214;-43
2022/09/01 12:10:31;;;;;;;2.00;1.70;;;25.90;82.50;;;;;;5099546;27;20201;-43
2022/09/01 12:13:03;;;;;;;3.95;1.85;;;25.90;82.00;;;;;;5111712;27;20207;-43
2022/09/01 12:15:35;;;;;;;5.47;1.30;;;26.00;80.50;;;;;;5110934;27;20216;-43
2022/09/01 12:18:17;;;;;;;5.70;1.90;;;26.10;81.90;;;;;;5092581;27;20752;-43
2022/09/01 12:20:47;;;;;;;4.07;1.40;;;26.10;80.10;;;;;;5103223;27;20210;-43
2022/09/01 12:23:34;;;;;;;2.15;1.40;;;26.10;82.20;;;;;;5103612;27;20198;-44
2022/09/01 12:26:05;;;;;;;2.75;1.23;;;26.20;82.90;;;;;;5117663;27;20210;-38
2022/09/01 12:28:40;;;;;;;2.47;1.48;;;26.30;81.80;;;;;;5111306;27;20205;-43
2022/09/01 12:31:15;;;;;;;2.85;1.40;;;26.30;82.60;;;;;;5123968;27;20747;-43
2022/09/01 12:33:44;;;;;;;3.85;1.60;;;26.30;80.40;;;;;;5125458;27;20233;-43
2022/09/01 12:36:28;;;;;;;4.00;1.67;;;26.40;80.80;;;;;;5112501;27;20205;-43
2022/09/01 12:39:21;;;;;;;4.10;1.40;;;26.40;79.80;;;;;;5143177;27;20197;-43
2022/09/01 12:42:03;;;;;;;6.63;1.50;;;26.40;81.90;;;;;;5094363;28;20645;-43
2022/09/01 12:44:36;;;;;;;2.67;1.60;;;26.50;82.10;;;;;;5094315;28;20229;-43
2022/09/01 12:47:09;;;;;;;3.42;1.60;;;26.50;82.10;;;;;;5110316;27;20735;-43
2022/09/01 12:49:42;;;;;;;2.78;1.90;;;26.50;81.00;;;;;;5117174;27;20208;-43
2022/09/01 12:52:21;;;;;;;4.43;1.88;;;26.60;80.40;;;;;;5098145;27;20253;-44
2022/09/01 12:55:05;;;;;;;5.80;1.65;;;26.60;81.40;;;;;;5111019;27;20297;-43
2022/09/01 12:57:44;;;;;;;6.20;1.60;;;26.60;81.80;;;;;;5113693;27;20236;-44
2022/09/01 13:00:22;;;;;;;4.50;1.70;;;26.70;81.10;;;;;;5120203;27;20225;-44
2022/09/01 13:03:02;;;;;;;6.22;1.60;;;26.70;80.80;;;;;;5110048;28;20204;-44
2022/09/01 13:05:39;;;;;;;4.30;1.58;;;26.70;80.70;;;;;;5121345;27;20721;-43
2022/09/01 13:08:11;;;;;;;2.50;1.40;;;26.80;81.10;;;;;;5086332;27;20608;-44
2022/09/01 13:10:52;;;;;;;7.30;1.35;;;26.80;81.10;;;;;;5118861;27;20210;-44
2022/09/01 13:13:21;;;;;;;7.20;1.88;;;26.70;79.50;;;;;;5115010;27;20668;-44
2022/09/01 13:15:51;;;;;;;6.38;1.52;;;26.80;79.00;;;;;;5109671;27;20701;-44
2022/09/01 13:18:27;;;;;;;4.03;1.45;;;26.80;80.30;;;;;;5115390;27;20218;-44
2022/09/01 13:20:56;;;;;;;1.60;1.48;;;26.80;79.30;;;;;;5110887;27;20210;-44
2022/09/01 13:23:24;;;;;;;3.15;1.40;;;26.80;80.10;;;;;;5110168;27;20209;-44
2022/09/01 13:25:54;;;;;;;2.63;1.40;;;26.80;80.30;;;;;;5122424;27;20198;-44
2022/09/01 13:28:23;;;;;;;4.80;1.52;;;26.80;80.90;;;;;;5127461;27;20197;-44
2022/09/01 13:31:04;;;;;;;3.90;1.38;;;26.80;80.70;;;;;;5117642;27;20202;-43
2022/09/01 13:33:53;;;;;;;4.68;1.40;;;26.90;80.90;;;;;;5131459;27;20228;-43